sensor_id;sensor_type;location;lat;lon;timestamp;P1;durP1;ratioP1;P2;durP2;ratioP2
68379;SDS011;57711;53.196;19.638;2022-11-15T00:00:20;87.10;;;34.10;;
68379;SDS011;57711;53.196;19.638;2022-11-15T00:03:06;59.30;;;25.70;;
68379;SDS011;57711;53.196;19.638;2022-11-15T00:05:52;49.40;;;22.30;;
68379;SDS011;57711;53.196;19.638;2022-11-15T00:08:38;46.20;;;24.80;;
68379;SDS011;57711;53.196;19.638;2022-11-15T00:11:24;50.90;;;25.70;;
68379;SDS011;57711;53.196;19.638;2022-11-15T00:14:09;62.40;;;28.70;;
68379;SDS011;57711;53.196;19.638;2022-11-15T00:16:55;71.20;;;30.10;;
68379;SDS011;57711;53.196;19.638;2022-11-15T00:19:41;59.20;;;29.10;;
68379;SDS011;57711;53.196;19.638;2022-11-15T00:25:18;56.00;;;25.70;;
68379;SDS011;57711;53.196;19.638;2022-11-15T00:28:04;50.20;;;22.70;;
68379;SDS011;57711;53.196;19.638;2022-11-15T00:30:50;45.50;;;22.40;;
68379;SDS011;57711;53.196;19.638;2022-11-15T00:33:36;46.70;;;22.40;;
68379;SDS011;57711;53.196;19.638;2022-11-15T00:36:21;50.40;;;26.20;;
68379;SDS011;57711;53.196;19.638;2022-11-15T00:39:07;49.60;;;24.30;;
68379;SDS011;57711;53.196;19.638;2022-11-15T00:41:53;46.90;;;22.90;;
68379;SDS011;57711;53.196;19.638;2022-11-15T00:44:39;46.00;;;23.30;;
68379;SDS011;57711;53.196;19.638;2022-11-15T00:47:24;41.30;;;24.40;;
68379;SDS011;57711;53.196;19.638;2022-11-15T00:52:59;49.90;;;26.90;;
68379;SDS011;57711;53.196;19.638;2022-11-15T00:58:32;45.80;;;25.20;;
68379;SDS011;57711;53.196;19.638;2022-11-15T01:01:17;45.00;;;24.20;;
68379;SDS011;57711;53.196;19.638;2022-11-15T01:04:03;53.50;;;27.90;;
68379;SDS011;57711;53.196;19.638;2022-11-15T01:09:35;51.80;;;26.20;;
68379;SDS011;57711;53.196;19.638;2022-11-15T01:15:07;60.80;;;30.80;;
68379;SDS011;57711;53.196;19.638;2022-11-15T01:17:53;56.10;;;28.90;;
68379;SDS011;57711;53.196;19.638;2022-11-15T01:20:40;72.70;;;28.20;;
68379;SDS011;57711;53.196;19.638;2022-11-15T01:23:27;57.50;;;25.90;;
68379;SDS011;57711;53.196;19.638;2022-11-15T01:26:14;57.00;;;25.80;;
68379;SDS011;57711;53.196;19.638;2022-11-15T01:29:01;56.70;;;24.00;;
68379;SDS011;57711;53.196;19.638;2022-11-15T01:31:46;48.70;;;24.60;;
68379;SDS011;57711;53.196;19.638;2022-11-15T01:34:32;53.60;;;24.70;;
68379;SDS011;57711;53.196;19.638;2022-11-15T01:37:18;55.10;;;27.20;;
68379;SDS011;57711;53.196;19.638;2022-11-15T01:40:04;55.70;;;25.80;;
68379;SDS011;57711;53.196;19.638;2022-11-15T01:45:36;46.20;;;23.20;;
68379;SDS011;57711;53.196;19.638;2022-11-15T01:48:22;53.60;;;23.70;;
68379;SDS011;57711;53.196;19.638;2022-11-15T01:51:18;44.20;;;22.80;;
68379;SDS011;57711;53.196;19.638;2022-11-15T01:54:06;60.60;;;26.80;;
68379;SDS011;57711;53.196;19.638;2022-11-15T01:56:59;51.20;;;28.70;;
68379;SDS011;57711;53.196;19.638;2022-11-15T01:59:49;65.10;;;32.60;;
68379;SDS011;57711;53.196;19.638;2022-11-15T02:05:21;59.30;;;27.80;;
68379;SDS011;57711;53.196;19.638;2022-11-15T02:10:54;67.80;;;30.90;;
68379;SDS011;57711;53.196;19.638;2022-11-15T02:13:39;44.80;;;22.70;;
68379;SDS011;57711;53.196;19.638;2022-11-15T02:16:35;51.10;;;24.60;;
68379;SDS011;57711;53.196;19.638;2022-11-15T02:29:10;53.50;;;26.60;;
68379;SDS011;57711;53.196;19.638;2022-11-15T02:38:34;37.20;;;18.60;;
68379;SDS011;57711;53.196;19.638;2022-11-15T02:42:16;38.30;;;19.80;;
68379;SDS011;57711;53.196;19.638;2022-11-15T02:45:24;55.90;;;24.90;;
68379;SDS011;57711;53.196;19.638;2022-11-15T02:48:15;49.70;;;24.40;;
68379;SDS011;57711;53.196;19.638;2022-11-15T02:51:02;54.50;;;26.00;;
68379;SDS011;57711;53.196;19.638;2022-11-15T02:53:49;52.10;;;25.70;;
68379;SDS011;57711;53.196;19.638;2022-11-15T03:08:22;56.90;;;27.40;;
68379;SDS011;57711;53.196;19.638;2022-11-15T03:11:17;65.20;;;29.60;;
68379;SDS011;57711;53.196;19.638;2022-11-15T03:17:06;56.50;;;29.30;;
68379;SDS011;57711;53.196;19.638;2022-11-15T03:19:56;72.10;;;30.70;;
68379;SDS011;57711;53.196;19.638;2022-11-15T03:22:44;61.90;;;26.40;;
68379;SDS011;57711;53.196;19.638;2022-11-15T03:25:32;56.60;;;23.70;;
68379;SDS011;57711;53.196;19.638;2022-11-15T03:28:22;61.30;;;26.30;;
68379;SDS011;57711;53.196;19.638;2022-11-15T03:31:12;45.90;;;21.40;;
68379;SDS011;57711;53.196;19.638;2022-11-15T03:37:20;76.70;;;34.10;;
68379;SDS011;57711;53.196;19.638;2022-11-15T03:40:10;68.30;;;30.30;;
68379;SDS011;57711;53.196;19.638;2022-11-15T03:43:04;64.40;;;30.40;;
68379;SDS011;57711;53.196;19.638;2022-11-15T03:45:58;70.60;;;30.60;;
68379;SDS011;57711;53.196;19.638;2022-11-15T03:48:48;62.20;;;27.90;;
68379;SDS011;57711;53.196;19.638;2022-11-15T03:51:37;68.40;;;28.70;;
68379;SDS011;57711;53.196;19.638;2022-11-15T03:54:23;63.20;;;26.90;;
68379;SDS011;57711;53.196;19.638;2022-11-15T03:57:09;67.40;;;27.30;;
68379;SDS011;57711;53.196;19.638;2022-11-15T03:59:55;62.40;;;27.30;;
68379;SDS011;57711;53.196;19.638;2022-11-15T04:02:40;55.60;;;25.90;;
68379;SDS011;57711;53.196;19.638;2022-11-15T04:05:26;55.20;;;23.50;;
68379;SDS011;57711;53.196;19.638;2022-11-15T04:08:12;54.50;;;25.40;;
68379;SDS011;57711;53.196;19.638;2022-11-15T04:10:58;61.40;;;28.00;;
68379;SDS011;57711;53.196;19.638;2022-11-15T04:13:46;54.50;;;23.90;;
68379;SDS011;57711;53.196;19.638;2022-11-15T04:16:32;51.80;;;23.80;;
68379;SDS011;57711;53.196;19.638;2022-11-15T04:19:17;63.00;;;25.30;;
68379;SDS011;57711;53.196;19.638;2022-11-15T04:22:21;61.90;;;23.60;;
68379;SDS011;57711;53.196;19.638;2022-11-15T04:25:26;63.70;;;27.00;;
68379;SDS011;57711;53.196;19.638;2022-11-15T04:28:16;61.40;;;25.80;;
68379;SDS011;57711;53.196;19.638;2022-11-15T04:33:47;63.20;;;28.30;;
68379;SDS011;57711;53.196;19.638;2022-11-15T04:36:33;70.00;;;26.80;;
68379;SDS011;57711;53.196;19.638;2022-11-15T04:39:39;69.50;;;28.70;;
68379;SDS011;57711;53.196;19.638;2022-11-15T04:42:25;69.50;;;28.70;;
68379;SDS011;57711;53.196;19.638;2022-11-15T04:47:57;73.60;;;31.80;;
68379;SDS011;57711;53.196;19.638;2022-11-15T04:50:43;81.70;;;34.70;;
68379;SDS011;57711;53.196;19.638;2022-11-15T04:53:29;87.20;;;36.20;;
68379;SDS011;57711;53.196;19.638;2022-11-15T04:56:15;78.70;;;33.70;;
68379;SDS011;57711;53.196;19.638;2022-11-15T04:59:01;59.30;;;22.30;;
68379;SDS011;57711;53.196;19.638;2022-11-15T05:04:33;52.70;;;26.20;;
68379;SDS011;57711;53.196;19.638;2022-11-15T05:07:18;59.70;;;29.50;;
68379;SDS011;57711;53.196;19.638;2022-11-15T05:10:04;70.90;;;29.40;;
68379;SDS011;57711;53.196;19.638;2022-11-15T05:12:50;77.30;;;31.80;;
68379;SDS011;57711;53.196;19.638;2022-11-15T05:15:36;69.70;;;32.10;;
68379;SDS011;57711;53.196;19.638;2022-11-15T05:18:22;54.50;;;22.90;;
68379;SDS011;57711;53.196;19.638;2022-11-15T05:21:08;65.10;;;27.80;;
68379;SDS011;57711;53.196;19.638;2022-11-15T05:23:56;60.00;;;28.10;;
68379;SDS011;57711;53.196;19.638;2022-11-15T05:26:42;53.40;;;22.80;;
68379;SDS011;57711;53.196;19.638;2022-11-15T05:29:28;68.70;;;27.60;;
68379;SDS011;57711;53.196;19.638;2022-11-15T05:32:14;62.60;;;26.20;;
68379;SDS011;57711;53.196;19.638;2022-11-15T05:37:46;71.30;;;32.80;;
68379;SDS011;57711;53.196;19.638;2022-11-15T05:40:31;69.00;;;29.50;;
68379;SDS011;57711;53.196;19.638;2022-11-15T05:43:19;72.70;;;28.80;;
68379;SDS011;57711;53.196;19.638;2022-11-15T05:46:06;61.20;;;27.50;;
68379;SDS011;57711;53.196;19.638;2022-11-15T05:51:39;72.70;;;29.70;;
68379;SDS011;57711;53.196;19.638;2022-11-15T05:54:27;71.90;;;29.30;;
68379;SDS011;57711;53.196;19.638;2022-11-15T05:59:58;64.80;;;30.70;;
68379;SDS011;57711;53.196;19.638;2022-11-15T06:05:30;70.90;;;31.00;;
68379;SDS011;57711;53.196;19.638;2022-11-15T06:08:15;62.20;;;27.90;;
68379;SDS011;57711;53.196;19.638;2022-11-15T06:11:05;52.90;;;23.80;;
68379;SDS011;57711;53.196;19.638;2022-11-15T06:13:51;53.30;;;23.30;;
68379;SDS011;57711;53.196;19.638;2022-11-15T06:16:37;48.30;;;22.20;;
68379;SDS011;57711;53.196;19.638;2022-11-15T06:19:23;65.70;;;26.50;;
68379;SDS011;57711;53.196;19.638;2022-11-15T06:22:09;80.40;;;34.40;;
68379;SDS011;57711;53.196;19.638;2022-11-15T06:24:55;64.00;;;27.40;;
68379;SDS011;57711;53.196;19.638;2022-11-15T06:27:50;73.60;;;28.40;;
68379;SDS011;57711;53.196;19.638;2022-11-15T06:30:40;125.30;;;51.50;;
68379;SDS011;57711;53.196;19.638;2022-11-15T06:33:25;55.60;;;25.50;;
68379;SDS011;57711;53.196;19.638;2022-11-15T06:36:11;54.40;;;23.60;;
68379;SDS011;57711;53.196;19.638;2022-11-15T06:39:03;81.90;;;32.20;;
68379;SDS011;57711;53.196;19.638;2022-11-15T06:41:49;73.40;;;28.10;;
68379;SDS011;57711;53.196;19.638;2022-11-15T06:47:21;66.10;;;30.00;;
68379;SDS011;57711;53.196;19.638;2022-11-15T06:50:07;57.20;;;27.30;;
68379;SDS011;57711;53.196;19.638;2022-11-15T06:52:53;54.50;;;24.50;;
68379;SDS011;57711;53.196;19.638;2022-11-15T06:55:40;52.30;;;23.10;;
68379;SDS011;57711;53.196;19.638;2022-11-15T07:01:12;54.50;;;26.30;;
68379;SDS011;57711;53.196;19.638;2022-11-15T07:03:58;48.60;;;20.90;;
68379;SDS011;57711;53.196;19.638;2022-11-15T07:06:46;51.90;;;21.70;;
68379;SDS011;57711;53.196;19.638;2022-11-15T07:09:34;67.20;;;29.80;;
68379;SDS011;57711;53.196;19.638;2022-11-15T07:12:20;55.20;;;26.90;;
68379;SDS011;57711;53.196;19.638;2022-11-15T07:15:06;60.00;;;27.40;;
68379;SDS011;57711;53.196;19.638;2022-11-15T07:20:38;86.60;;;33.50;;
68379;SDS011;57711;53.196;19.638;2022-11-15T07:23:25;75.50;;;31.40;;
68379;SDS011;57711;53.196;19.638;2022-11-15T07:26:10;81.40;;;31.90;;
68379;SDS011;57711;53.196;19.638;2022-11-15T07:28:56;91.00;;;35.20;;
68379;SDS011;57711;53.196;19.638;2022-11-15T07:34:28;61.40;;;27.20;;
68379;SDS011;57711;53.196;19.638;2022-11-15T07:37:14;71.30;;;29.10;;
68379;SDS011;57711;53.196;19.638;2022-11-15T07:40:02;107.80;;;48.20;;
68379;SDS011;57711;53.196;19.638;2022-11-15T07:42:48;94.40;;;33.70;;
68379;SDS011;57711;53.196;19.638;2022-11-15T07:45:41;179.50;;;55.80;;
68379;SDS011;57711;53.196;19.638;2022-11-15T07:48:28;311.40;;;128.80;;
68379;SDS011;57711;53.196;19.638;2022-11-15T07:51:28;169.70;;;66.70;;
68379;SDS011;57711;53.196;19.638;2022-11-15T07:54:13;75.00;;;31.90;;
68379;SDS011;57711;53.196;19.638;2022-11-15T07:56:59;72.00;;;29.40;;
68379;SDS011;57711;53.196;19.638;2022-11-15T07:59:51;64.80;;;24.80;;
68379;SDS011;57711;53.196;19.638;2022-11-15T08:02:37;109.00;;;45.90;;
68379;SDS011;57711;53.196;19.638;2022-11-15T08:08:10;838.50;;;284.00;;
68379;SDS011;57711;53.196;19.638;2022-11-15T08:10:59;900.40;;;291.00;;
68379;SDS011;57711;53.196;19.638;2022-11-15T08:13:45;233.70;;;64.70;;
68379;SDS011;57711;53.196;19.638;2022-11-15T08:16:31;406.60;;;104.90;;
68379;SDS011;57711;53.196;19.638;2022-11-15T08:19:17;185.10;;;55.90;;
68379;SDS011;57711;53.196;19.638;2022-11-15T08:24:49;127.80;;;56.40;;
68379;SDS011;57711;53.196;19.638;2022-11-15T08:27:35;66.40;;;31.50;;
68379;SDS011;57711;53.196;19.638;2022-11-15T08:30:21;66.50;;;29.80;;
68379;SDS011;57711;53.196;19.638;2022-11-15T08:33:10;56.40;;;22.70;;
68379;SDS011;57711;53.196;19.638;2022-11-15T08:35:57;61.20;;;25.00;;
68379;SDS011;57711;53.196;19.638;2022-11-15T08:38:46;56.40;;;24.70;;
68379;SDS011;57711;53.196;19.638;2022-11-15T08:41:33;76.70;;;31.10;;
68379;SDS011;57711;53.196;19.638;2022-11-15T08:44:21;59.90;;;23.40;;
68379;SDS011;57711;53.196;19.638;2022-11-15T08:47:09;53.10;;;21.00;;
68379;SDS011;57711;53.196;19.638;2022-11-15T08:49:56;50.20;;;22.90;;
68379;SDS011;57711;53.196;19.638;2022-11-15T08:55:28;56.00;;;23.00;;
68379;SDS011;57711;53.196;19.638;2022-11-15T08:58:13;62.60;;;25.40;;
68379;SDS011;57711;53.196;19.638;2022-11-15T09:03:45;58.50;;;26.80;;
68379;SDS011;57711;53.196;19.638;2022-11-15T09:06:31;52.30;;;22.50;;
68379;SDS011;57711;53.196;19.638;2022-11-15T09:09:17;46.60;;;20.40;;
68379;SDS011;57711;53.196;19.638;2022-11-15T09:12:02;52.10;;;21.30;;
68379;SDS011;57711;53.196;19.638;2022-11-15T09:17:34;54.10;;;27.00;;
68379;SDS011;57711;53.196;19.638;2022-11-15T09:20:20;72.60;;;30.20;;
68379;SDS011;57711;53.196;19.638;2022-11-15T09:25:52;48.70;;;21.70;;
68379;SDS011;57711;53.196;19.638;2022-11-15T09:28:44;82.20;;;40.40;;
68379;SDS011;57711;53.196;19.638;2022-11-15T09:31:30;90.80;;;38.70;;
68379;SDS011;57711;53.196;19.638;2022-11-15T09:34:16;96.20;;;40.30;;
68379;SDS011;57711;53.196;19.638;2022-11-15T09:39:48;89.70;;;36.90;;
68379;SDS011;57711;53.196;19.638;2022-11-15T09:48:56;60.00;;;23.50;;
68379;SDS011;57711;53.196;19.638;2022-11-15T09:51:45;64.70;;;26.70;;
68379;SDS011;57711;53.196;19.638;2022-11-15T09:57:31;62.70;;;27.40;;
68379;SDS011;57711;53.196;19.638;2022-11-15T10:00:19;72.10;;;30.00;;
68379;SDS011;57711;53.196;19.638;2022-11-15T10:05:43;89.20;;;33.10;;
68379;SDS011;57711;53.196;19.638;2022-11-15T10:10:53;69.50;;;24.50;;
68379;SDS011;57711;53.196;19.638;2022-11-15T10:13:44;61.60;;;25.20;;
68379;SDS011;57711;53.196;19.638;2022-11-15T10:22:27;82.30;;;29.20;;
68379;SDS011;57711;53.196;19.638;2022-11-15T10:27:29;78.10;;;26.70;;
68379;SDS011;57711;53.196;19.638;2022-11-15T10:29:57;61.90;;;24.30;;
68379;SDS011;57711;53.196;19.638;2022-11-15T10:32:24;56.60;;;23.60;;
68379;SDS011;57711;53.196;19.638;2022-11-15T10:34:52;59.20;;;25.30;;
68379;SDS011;57711;53.196;19.638;2022-11-15T10:37:27;62.50;;;25.30;;
68379;SDS011;57711;53.196;19.638;2022-11-15T10:43:04;46.50;;;19.70;;
68379;SDS011;57711;53.196;19.638;2022-11-15T10:45:39;54.60;;;21.50;;
68379;SDS011;57711;53.196;19.638;2022-11-15T10:48:24;61.30;;;23.60;;
68379;SDS011;57711;53.196;19.638;2022-11-15T10:50:52;50.90;;;21.20;;
68379;SDS011;57711;53.196;19.638;2022-11-15T10:53:23;72.60;;;26.80;;
68379;SDS011;57711;53.196;19.638;2022-11-15T10:55:54;150.90;;;56.90;;
68379;SDS011;57711;53.196;19.638;2022-11-15T10:58:30;150.50;;;59.80;;
68379;SDS011;57711;53.196;19.638;2022-11-15T11:04:12;107.50;;;51.10;;
68379;SDS011;57711;53.196;19.638;2022-11-15T11:12:05;68.40;;;29.40;;
68379;SDS011;57711;53.196;19.638;2022-11-15T11:14:37;68.80;;;26.50;;
68379;SDS011;57711;53.196;19.638;2022-11-15T11:17:29;77.30;;;28.50;;
68379;SDS011;57711;53.196;19.638;2022-11-15T11:22:41;73.70;;;28.70;;
68379;SDS011;57711;53.196;19.638;2022-11-15T11:44:32;74.50;;;31.70;;
68379;SDS011;57711;53.196;19.638;2022-11-15T11:47:12;86.20;;;31.00;;
68379;SDS011;57711;53.196;19.638;2022-11-15T11:49:55;63.20;;;24.30;;
68379;SDS011;57711;53.196;19.638;2022-11-15T11:52:24;64.60;;;26.60;;
68379;SDS011;57711;53.196;19.638;2022-11-15T12:00:19;63.20;;;25.80;;
68379;SDS011;57711;53.196;19.638;2022-11-15T12:03:03;72.10;;;27.00;;
68379;SDS011;57711;53.196;19.638;2022-11-15T12:13:28;102.90;;;39.10;;
68379;SDS011;57711;53.196;19.638;2022-11-15T12:16:06;66.00;;;27.80;;
68379;SDS011;57711;53.196;19.638;2022-11-15T12:18:39;67.20;;;25.80;;
68379;SDS011;57711;53.196;19.638;2022-11-15T12:21:16;78.20;;;30.40;;
68379;SDS011;57711;53.196;19.638;2022-11-15T12:24:01;112.50;;;40.50;;
68379;SDS011;57711;53.196;19.638;2022-11-15T12:26:37;172.60;;;69.10;;
68379;SDS011;57711;53.196;19.638;2022-11-15T12:29:15;105.10;;;41.80;;
68379;SDS011;57711;53.196;19.638;2022-11-15T12:31:48;86.60;;;32.40;;
68379;SDS011;57711;53.196;19.638;2022-11-15T12:36:51;105.10;;;43.90;;
68379;SDS011;57711;53.196;19.638;2022-11-15T12:39:18;114.90;;;44.20;;
68379;SDS011;57711;53.196;19.638;2022-11-15T12:46:59;107.00;;;46.80;;
68379;SDS011;57711;53.196;19.638;2022-11-15T12:59:52;98.00;;;39.70;;
68379;SDS011;57711;53.196;19.638;2022-11-15T13:02:40;79.20;;;34.60;;
68379;SDS011;57711;53.196;19.638;2022-11-15T13:22:49;79.60;;;32.50;;
68379;SDS011;57711;53.196;19.638;2022-11-15T13:30:53;76.30;;;33.80;;
68379;SDS011;57711;53.196;19.638;2022-11-15T13:33:24;99.90;;;42.60;;
68379;SDS011;57711;53.196;19.638;2022-11-15T13:36:03;97.20;;;46.00;;
68379;SDS011;57711;53.196;19.638;2022-11-15T13:38:37;86.00;;;37.00;;
68379;SDS011;57711;53.196;19.638;2022-11-15T13:41:16;77.10;;;32.80;;
68379;SDS011;57711;53.196;19.638;2022-11-15T13:43:47;87.40;;;36.00;;
68379;SDS011;57711;53.196;19.638;2022-11-15T13:46:16;131.80;;;51.80;;
68379;SDS011;57711;53.196;19.638;2022-11-15T13:48:46;110.20;;;42.50;;
68379;SDS011;57711;53.196;19.638;2022-11-15T13:51:22;208.30;;;63.80;;
68379;SDS011;57711;53.196;19.638;2022-11-15T13:53:56;193.20;;;58.40;;
68379;SDS011;57711;53.196;19.638;2022-11-15T13:56:30;162.10;;;51.70;;
68379;SDS011;57711;53.196;19.638;2022-11-15T13:59:07;134.60;;;46.30;;
68379;SDS011;57711;53.196;19.638;2022-11-15T14:01:36;83.60;;;35.00;;
68379;SDS011;57711;53.196;19.638;2022-11-15T14:04:03;79.10;;;31.60;;
68379;SDS011;57711;53.196;19.638;2022-11-15T14:06:31;117.00;;;40.60;;
68379;SDS011;57711;53.196;19.638;2022-11-15T14:11:48;227.50;;;67.60;;
68379;SDS011;57711;53.196;19.638;2022-11-15T14:14:17;138.10;;;47.10;;
68379;SDS011;57711;53.196;19.638;2022-11-15T14:16:57;85.60;;;30.70;;
68379;SDS011;57711;53.196;19.638;2022-11-15T14:24:42;137.40;;;42.30;;
68379;SDS011;57711;53.196;19.638;2022-11-15T14:27:25;137.90;;;45.20;;
68379;SDS011;57711;53.196;19.638;2022-11-15T14:29:54;145.40;;;52.30;;
68379;SDS011;57711;53.196;19.638;2022-11-15T14:32:24;206.50;;;74.00;;
68379;SDS011;57711;53.196;19.638;2022-11-15T14:35:00;142.60;;;51.30;;
68379;SDS011;57711;53.196;19.638;2022-11-15T14:37:29;153.30;;;54.80;;
68379;SDS011;57711;53.196;19.638;2022-11-15T14:40:01;126.70;;;51.40;;
68379;SDS011;57711;53.196;19.638;2022-11-15T14:42:30;137.50;;;62.90;;
68379;SDS011;57711;53.196;19.638;2022-11-15T14:44:57;109.80;;;50.40;;
68379;SDS011;57711;53.196;19.638;2022-11-15T14:47:24;127.00;;;55.20;;
68379;SDS011;57711;53.196;19.638;2022-11-15T14:49:52;116.70;;;50.90;;
68379;SDS011;57711;53.196;19.638;2022-11-15T14:54:46;75.10;;;33.10;;
68379;SDS011;57711;53.196;19.638;2022-11-15T14:57:13;79.80;;;35.00;;
68379;SDS011;57711;53.196;19.638;2022-11-15T14:59:40;91.70;;;35.90;;
68379;SDS011;57711;53.196;19.638;2022-11-15T15:02:19;122.20;;;45.70;;
68379;SDS011;57711;53.196;19.638;2022-11-15T15:04:48;130.90;;;51.00;;
68379;SDS011;57711;53.196;19.638;2022-11-15T15:07:16;111.40;;;45.30;;
68379;SDS011;57711;53.196;19.638;2022-11-15T15:09:44;81.70;;;37.00;;
68379;SDS011;57711;53.196;19.638;2022-11-15T15:12:14;70.90;;;30.10;;
68379;SDS011;57711;53.196;19.638;2022-11-15T15:14:42;78.10;;;39.20;;
68379;SDS011;57711;53.196;19.638;2022-11-15T15:17:09;61.90;;;29.00;;
68379;SDS011;57711;53.196;19.638;2022-11-15T15:19:36;53.20;;;26.10;;
68379;SDS011;57711;53.196;19.638;2022-11-15T15:22:03;63.90;;;28.40;;
68379;SDS011;57711;53.196;19.638;2022-11-15T15:24:31;156.90;;;71.30;;
68379;SDS011;57711;53.196;19.638;2022-11-15T15:26:58;96.80;;;44.10;;
68379;SDS011;57711;53.196;19.638;2022-11-15T15:29:27;89.70;;;41.30;;
68379;SDS011;57711;53.196;19.638;2022-11-15T15:31:54;157.30;;;87.70;;
68379;SDS011;57711;53.196;19.638;2022-11-15T15:34:21;163.40;;;92.20;;
68379;SDS011;57711;53.196;19.638;2022-11-15T15:36:48;186.10;;;82.40;;
68379;SDS011;57711;53.196;19.638;2022-11-15T15:39:15;110.00;;;44.70;;
68379;SDS011;57711;53.196;19.638;2022-11-15T15:41:42;97.20;;;38.90;;
68379;SDS011;57711;53.196;19.638;2022-11-15T15:44:10;92.40;;;35.90;;
68379;SDS011;57711;53.196;19.638;2022-11-15T15:46:37;87.10;;;36.50;;
68379;SDS011;57711;53.196;19.638;2022-11-15T15:49:04;67.30;;;30.40;;
68379;SDS011;57711;53.196;19.638;2022-11-15T15:51:31;59.30;;;27.60;;
68379;SDS011;57711;53.196;19.638;2022-11-15T15:53:58;86.80;;;37.90;;
68379;SDS011;57711;53.196;19.638;2022-11-15T15:56:25;58.60;;;28.70;;
68379;SDS011;57711;53.196;19.638;2022-11-15T15:58:52;80.20;;;35.40;;
68379;SDS011;57711;53.196;19.638;2022-11-15T16:01:19;92.90;;;39.00;;
68379;SDS011;57711;53.196;19.638;2022-11-15T16:03:46;176.90;;;63.50;;
68379;SDS011;57711;53.196;19.638;2022-11-15T16:09:02;112.70;;;66.40;;
68379;SDS011;57711;53.196;19.638;2022-11-15T16:11:46;79.90;;;45.00;;
68379;SDS011;57711;53.196;19.638;2022-11-15T16:14:13;53.80;;;27.70;;
68379;SDS011;57711;53.196;19.638;2022-11-15T16:16:40;43.20;;;24.50;;
68379;SDS011;57711;53.196;19.638;2022-11-15T16:19:07;72.00;;;33.90;;
68379;SDS011;57711;53.196;19.638;2022-11-15T16:21:37;83.10;;;38.30;;
68379;SDS011;57711;53.196;19.638;2022-11-15T16:24:04;71.60;;;34.30;;
68379;SDS011;57711;53.196;19.638;2022-11-15T16:26:31;190.10;;;75.00;;
68379;SDS011;57711;53.196;19.638;2022-11-15T16:29:01;134.80;;;55.00;;
68379;SDS011;57711;53.196;19.638;2022-11-15T16:31:28;172.20;;;62.00;;
68379;SDS011;57711;53.196;19.638;2022-11-15T16:33:55;88.90;;;43.90;;
68379;SDS011;57711;53.196;19.638;2022-11-15T16:36:24;114.30;;;45.60;;
68379;SDS011;57711;53.196;19.638;2022-11-15T16:38:56;123.80;;;46.80;;
68379;SDS011;57711;53.196;19.638;2022-11-15T16:41:24;82.30;;;33.60;;
68379;SDS011;57711;53.196;19.638;2022-11-15T16:43:52;75.40;;;34.10;;
68379;SDS011;57711;53.196;19.638;2022-11-15T16:46:23;111.50;;;45.20;;
68379;SDS011;57711;53.196;19.638;2022-11-15T16:48:51;116.50;;;41.90;;
68379;SDS011;57711;53.196;19.638;2022-11-15T16:51:22;112.50;;;41.90;;
68379;SDS011;57711;53.196;19.638;2022-11-15T16:53:49;103.60;;;40.90;;
68379;SDS011;57711;53.196;19.638;2022-11-15T16:56:23;85.40;;;36.50;;
68379;SDS011;57711;53.196;19.638;2022-11-15T16:58:53;89.00;;;37.80;;
68379;SDS011;57711;53.196;19.638;2022-11-15T17:01:24;74.80;;;29.20;;
68379;SDS011;57711;53.196;19.638;2022-11-15T17:03:52;68.30;;;29.50;;
68379;SDS011;57711;53.196;19.638;2022-11-15T17:06:20;61.90;;;26.60;;
68379;SDS011;57711;53.196;19.638;2022-11-15T17:08:48;40.40;;;21.80;;
68379;SDS011;57711;53.196;19.638;2022-11-15T17:11:17;47.10;;;21.20;;
68379;SDS011;57711;53.196;19.638;2022-11-15T17:13:45;46.10;;;21.20;;
68379;SDS011;57711;53.196;19.638;2022-11-15T17:16:15;64.60;;;27.90;;
68379;SDS011;57711;53.196;19.638;2022-11-15T17:18:43;110.20;;;47.90;;
68379;SDS011;57711;53.196;19.638;2022-11-15T17:21:18;111.00;;;46.00;;
68379;SDS011;57711;53.196;19.638;2022-11-15T17:23:47;60.00;;;28.50;;
68379;SDS011;57711;53.196;19.638;2022-11-15T17:26:14;85.50;;;33.60;;
68379;SDS011;57711;53.196;19.638;2022-11-15T17:29:01;92.20;;;46.70;;
68379;SDS011;57711;53.196;19.638;2022-11-15T17:31:30;62.40;;;33.40;;
68379;SDS011;57711;53.196;19.638;2022-11-15T17:34:00;52.60;;;24.00;;
68379;SDS011;57711;53.196;19.638;2022-11-15T17:36:28;154.30;;;56.20;;
68379;SDS011;57711;53.196;19.638;2022-11-15T17:38:55;113.00;;;46.70;;
68379;SDS011;57711;53.196;19.638;2022-11-15T17:41:25;70.70;;;31.40;;
68379;SDS011;57711;53.196;19.638;2022-11-15T17:43:57;70.90;;;29.00;;
68379;SDS011;57711;53.196;19.638;2022-11-15T17:46:26;101.50;;;40.00;;
68379;SDS011;57711;53.196;19.638;2022-11-15T17:48:54;57.50;;;27.40;;
68379;SDS011;57711;53.196;19.638;2022-11-15T17:51:22;121.30;;;54.00;;
68379;SDS011;57711;53.196;19.638;2022-11-15T17:53:50;70.70;;;31.50;;
68379;SDS011;57711;53.196;19.638;2022-11-15T17:56:18;103.70;;;39.60;;
68379;SDS011;57711;53.196;19.638;2022-11-15T17:58:51;138.60;;;51.90;;
68379;SDS011;57711;53.196;19.638;2022-11-15T18:01:24;101.50;;;40.60;;
68379;SDS011;57711;53.196;19.638;2022-11-15T18:03:51;41.50;;;20.60;;
68379;SDS011;57711;53.196;19.638;2022-11-15T18:06:20;51.70;;;29.00;;
68379;SDS011;57711;53.196;19.638;2022-11-15T18:08:49;64.40;;;43.90;;
68379;SDS011;57711;53.196;19.638;2022-11-15T18:11:18;34.00;;;18.60;;
68379;SDS011;57711;53.196;19.638;2022-11-15T18:13:51;24.40;;;13.70;;
68379;SDS011;57711;53.196;19.638;2022-11-15T18:16:20;88.50;;;37.00;;
68379;SDS011;57711;53.196;19.638;2022-11-15T18:18:51;53.40;;;26.50;;
68379;SDS011;57711;53.196;19.638;2022-11-15T18:21:23;31.80;;;16.80;;
68379;SDS011;57711;53.196;19.638;2022-11-15T18:23:52;45.70;;;23.40;;
68379;SDS011;57711;53.196;19.638;2022-11-15T18:26:21;47.10;;;23.90;;
68379;SDS011;57711;53.196;19.638;2022-11-15T18:28:54;70.10;;;34.30;;
68379;SDS011;57711;53.196;19.638;2022-11-15T18:31:27;53.10;;;26.60;;
68379;SDS011;57711;53.196;19.638;2022-11-15T18:33:59;64.40;;;30.20;;
68379;SDS011;57711;53.196;19.638;2022-11-15T18:36:27;52.30;;;30.50;;
68379;SDS011;57711;53.196;19.638;2022-11-15T18:38:58;66.60;;;36.60;;
68379;SDS011;57711;53.196;19.638;2022-11-15T18:41:28;53.70;;;27.50;;
68379;SDS011;57711;53.196;19.638;2022-11-15T18:43:57;54.00;;;27.20;;
68379;SDS011;57711;53.196;19.638;2022-11-15T18:46:30;50.30;;;23.70;;
68379;SDS011;57711;53.196;19.638;2022-11-15T18:48:59;64.40;;;30.60;;
68379;SDS011;57711;53.196;19.638;2022-11-15T18:51:28;74.70;;;35.10;;
68379;SDS011;57711;53.196;19.638;2022-11-15T18:53:57;36.10;;;18.10;;
68379;SDS011;57711;53.196;19.638;2022-11-15T18:56:27;58.60;;;28.60;;
68379;SDS011;57711;53.196;19.638;2022-11-15T18:58:56;57.70;;;28.00;;
68379;SDS011;57711;53.196;19.638;2022-11-15T19:01:26;50.20;;;24.00;;
68379;SDS011;57711;53.196;19.638;2022-11-15T19:03:55;81.10;;;34.30;;
68379;SDS011;57711;53.196;19.638;2022-11-15T19:06:25;61.00;;;28.20;;